Time;durP1;ratioP1;P1;durP2;ratioP2;P2;SDS_P1;SDS_P2;PMS_P1;PMS_P2;Temp;Humidity;BMP_temperature;BMP_pressure;BME280_temperature;BME280_humidity;BME280_pressure;Samples;Min_cycle;Max_cycle;Signal;HPM_P1;HPM_P2
2021/05/15 00:01:21;;;;;;;7.67;3.95;;;;;;;19.37;59.58;101077.48;1787400;79;21127;-50
2021/05/15 00:03:48;;;;;;;6.75;3.33;;;;;;;19.37;59.70;101074.35;1784161;79;21072;-50
2021/05/15 00:06:15;;;;;;;7.55;3.25;;;;;;;19.38;59.78;101080.03;1739862;82;21053;-50
2021/05/15 00:08:43;;;;;;;8.98;4.35;;;;;;;19.40;59.85;101078.16;1717082;82;21053;-50
2021/05/15 00:11:09;;;;;;;10.05;3.75;;;;;;;19.40;59.79;101074.66;1775394;79;21083;-50
2021/05/15 00:13:36;;;;;;;9.68;3.20;;;;;;;19.38;59.69;101076.08;1717239;82;21038;-50
2021/05/15 00:16:03;;;;;;;7.30;3.22;;;;;;;19.39;59.56;101071.16;1773531;79;21560;-50
2021/05/15 00:18:30;;;;;;;11.12;3.58;;;;;;;19.39;59.49;101075.61;1745282;81;21021;-49
2021/05/15 00:20:57;;;;;;;8.68;3.50;;;;;;;19.40;59.44;101075.52;1715809;82;21089;-50
2021/05/15 00:23:24;;;;;;;14.20;3.85;;;;;;;19.39;59.41;101073.80;1725138;82;21060;-51
2021/05/15 00:25:51;;;;;;;6.70;3.40;;;;;;;19.38;59.24;101074.75;1723663;82;21045;-50
2021/05/15 00:28:17;;;;;;;7.45;2.85;;;;;;;19.39;59.12;101080.40;1720664;82;21069;-50
2021/05/15 00:30:44;;;;;;;8.98;3.00;;;;;;;19.39;59.17;101081.72;1783877;79;21066;-50
2021/05/15 00:33:10;;;;;;;6.67;2.75;;;;;;;19.40;59.22;101086.08;1772075;79;21598;-50
2021/05/15 00:35:37;;;;;;;7.30;3.25;;;;;;;19.43;59.34;101077.98;1771995;79;21032;-50
2021/05/15 00:38:04;;;;;;;7.45;3.37;;;;;;;19.47;59.32;101067.65;1746426;79;21048;-49
2021/05/15 00:40:31;;;;;;;14.63;3.87;;;;;;;19.52;59.24;101067.86;1761865;79;21057;-50
2021/05/15 00:42:58;;;;;;;13.20;3.83;;;;;;;19.56;59.35;101058.88;1773076;79;21662;-51
2021/05/15 00:45:25;;;;;;;15.40;4.80;;;;;;;19.59;58.96;101066.61;1775865;79;21053;-50
2021/05/15 00:47:51;;;;;;;8.93;3.70;;;;;;;19.60;58.86;101067.84;1771713;79;21040;-50
2021/05/15 00:50:18;;;;;;;9.95;3.70;;;;;;;19.62;58.82;101077.03;1724687;82;21133;-50
2021/05/15 00:52:47;;;;;;;7.15;3.00;;;;;;;19.66;58.80;101083.84;1784188;79;21107;-50
2021/05/15 00:55:15;;;;;;;7.70;3.00;;;;;;;19.67;58.71;101078.93;1773598;79;21086;-50
2021/05/15 00:57:42;;;;;;;10.90;3.58;;;;;;;19.67;58.78;101090.81;1765580;80;21072;-50
2021/05/15 01:00:12;;;;;;;10.05;3.10;;;;;;;19.66;58.70;101087.31;1757730;80;21604;-50
2021/05/15 01:02:39;;;;;;;11.88;3.35;;;;;;;19.65;58.70;101092.22;1763234;79;21051;-50
2021/05/15 01:05:07;;;;;;;7.03;3.00;;;;;;;19.64;58.71;101090.99;1791686;79;20997;-50
2021/05/15 01:07:34;;;;;;;9.63;3.40;;;;;;;19.63;58.76;101095.88;1776307;79;21504;-50
2021/05/15 01:10:02;;;;;;;7.28;3.55;;;;;;;19.61;58.78;101104.34;1789359;79;21048;-50
2021/05/15 01:12:30;;;;;;;7.97;3.25;;;;;;;19.60;58.71;101103.97;1776766;79;21638;-49
2021/05/15 01:14:58;;;;;;;11.50;3.37;;;;;;;19.57;58.45;101103.66;1744582;81;21088;-50
2021/05/15 01:17:25;;;;;;;5.37;3.40;;;;;;;19.54;58.34;101104.30;1735741;80;21575;-50
2021/05/15 01:19:52;;;;;;;7.37;3.25;;;;;;;19.49;58.38;101105.86;1712122;82;21092;-50
2021/05/15 01:22:18;;;;;;;12.07;3.42;;;;;;;19.44;58.50;101106.09;1764454;79;21029;-50
2021/05/15 01:24:46;;;;;;;11.03;2.75;;;;;;;19.41;58.61;101104.92;1777564;79;21555;-50
2021/05/15 01:27:14;;;;;;;7.62;3.05;;;;;;;19.38;58.70;101102.46;1767026;80;21629;-50
2021/05/15 01:29:43;;;;;;;13.45;4.28;;;;;;;19.36;58.73;101108.28;1775231;79;22533;-49
2021/05/15 01:32:09;;;;;;;10.32;4.12;;;;;;;19.34;58.71;101110.16;1780898;78;21060;-50
2021/05/15 01:34:36;;;;;;;14.40;3.83;;;;;;;19.32;58.66;101117.27;1775911;79;21060;-50
2021/05/15 01:37:03;;;;;;;11.10;4.08;;;;;;;19.30;58.79;101120.45;1771972;78;21059;-50
2021/05/15 01:39:31;;;;;;;15.05;4.50;;;;;;;19.29;58.95;101121.82;1722598;82;21596;-49
2021/05/15 01:41:58;;;;;;;15.08;3.50;;;;;;;19.27;59.01;101124.55;1704346;82;21044;-50
2021/05/15 01:44:24;;;;;;;12.18;3.90;;;;;;;19.26;58.98;101126.81;1739309;81;21084;-50
2021/05/15 01:46:51;;;;;;;8.55;3.55;;;;;;;19.24;58.82;101124.73;1789871;79;21036;-50
2021/05/15 01:49:18;;;;;;;4.45;2.65;;;;;;;19.19;58.75;101135.97;1729639;82;21134;-50
2021/05/15 01:51:44;;;;;;;5.50;3.10;;;;;;;19.15;58.75;101130.92;1679241;81;21077;-50
2021/05/15 01:54:11;;;;;;;5.42;2.72;;;;;;;19.10;58.79;101129.00;1764559;80;21076;-50
2021/05/15 01:56:38;;;;;;;4.75;2.75;;;;;;;19.07;58.96;101132.64;1764767;79;21568;-50
2021/05/15 01:59:07;;;;;;;5.00;2.65;;;;;;;19.04;59.17;101131.95;1777057;80;21049;-50
2021/05/15 02:01:33;;;;;;;7.30;2.87;;;;;;;19.02;59.43;101132.49;1769835;79;21052;-49
2021/05/15 02:04:00;;;;;;;5.65;3.08;;;;;;;19.00;59.61;101125.95;1786564;79;21040;-50
2021/05/15 02:06:27;;;;;;;6.35;2.85;;;;;;;18.99;59.84;101134.81;1768416;80;21016;-50
2021/05/15 02:08:55;;;;;;;6.90;2.90;;;;;;;18.99;60.21;101137.45;1777737;79;21099;-50
2021/05/15 02:11:22;;;;;;;4.90;2.77;;;;;;;18.96;60.47;101137.59;1765229;80;21008;-52
2021/05/15 02:13:49;;;;;;;6.40;2.80;;;;;;;18.95;60.67;101142.48;1741482;82;21579;-50
2021/05/15 02:16:17;;;;;;;7.87;3.00;;;;;;;18.95;60.69;101145.13;1731035;81;21040;-50
2021/05/15 02:18:46;;;;;;;8.10;3.47;;;;;;;18.94;60.79;101143.41;1720410;82;21642;-50
2021/05/15 02:21:13;;;;;;;6.33;2.90;;;;;;;18.92;60.89;101137.35;1731323;82;21082;-50
2021/05/15 02:23:40;;;;;;;6.22;2.92;;;;;;;18.92;60.94;101139.98;1705770;82;21124;-50
2021/05/15 02:26:07;;;;;;;4.90;2.85;;;;;;;18.92;61.05;101147.91;1737045;82;21082;-50
2021/05/15 02:28:34;;;;;;;5.28;2.90;;;;;;;18.92;61.05;101143.95;1783005;79;21068;-50
2021/05/15 02:31:01;;;;;;;6.78;3.02;;;;;;;18.91;61.06;101155.44;1761416;80;21575;-50
2021/05/15 02:33:27;;;;;;;4.85;3.35;;;;;;;18.88;61.16;101147.67;1764823;80;21024;-50
2021/05/15 02:35:54;;;;;;;4.70;3.22;;;;;;;18.88;61.28;101142.39;1767131;79;21007;-50
2021/05/15 02:38:21;;;;;;;5.75;4.03;;;;;;;18.87;61.40;101151.25;1785476;79;21049;-50
2021/05/15 02:40:48;;;;;;;6.40;3.10;;;;;;;18.88;61.43;101158.22;1771398;79;21056;-51
2021/05/15 02:43:15;;;;;;;5.35;3.70;;;;;;;18.88;61.53;101162.17;1762170;79;21064;-51
2021/05/15 02:45:44;;;;;;;6.67;3.42;;;;;;;18.89;61.62;101171.80;1737873;82;21040;-50
2021/05/15 02:48:16;;;;;;;10.85;3.92;;;;;;;18.88;61.65;101168.77;1768027;79;21066;-50
2021/05/15 02:50:40;;;;;;;5.17;3.02;;;;;;;18.90;61.63;101166.91;1779356;79;21025;-49
2021/05/15 02:53:07;;;;;;;6.60;3.33;;;;;;;18.89;61.61;101165.21;1779981;79;21039;-50
2021/05/15 02:55:34;;;;;;;6.62;3.30;;;;;;;18.91;61.63;101159.85;1773126;79;21068;-50
2021/05/15 02:58:02;;;;;;;7.08;3.40;;;;;;;18.92;61.62;101161.09;1761562;80;21027;-50
2021/05/15 03:00:47;;;;;;;6.58;3.58;;;;;;;18.95;61.68;101160.95;1762760;80;21055;-50
2021/05/15 03:03:14;;;;;;;9.40;4.25;;;;;;;18.98;61.73;101163.41;1778623;79;21075;-50
2021/05/15 03:05:42;;;;;;;7.05;3.65;;;;;;;19.00;61.75;101165.52;1781171;79;21057;-50
2021/05/15 03:08:09;;;;;;;7.67;3.15;;;;;;;19.02;61.81;101164.97;1779322;79;21116;-49
2021/05/15 03:10:37;;;;;;;7.55;3.40;;;;;;;19.04;61.85;101164.42;1760815;80;21039;-50
2021/05/15 03:13:03;;;;;;;9.13;4.65;;;;;;;19.09;61.95;101167.70;1767382;79;21566;-50
2021/05/15 03:15:31;;;;;;;7.00;3.22;;;;;;;19.13;62.17;101167.07;1766262;79;21115;-50
2021/05/15 03:17:57;;;;;;;6.03;3.60;;;;;;;19.19;62.46;101168.08;1773396;79;21083;-50
2021/05/15 03:20:25;;;;;;;6.75;3.37;;;;;;;19.29;62.78;101167.54;1775609;79;21567;-50
2021/05/15 03:22:53;;;;;;;7.67;3.33;;;;;;;19.44;62.71;101166.80;1764662;79;21085;-48
2021/05/15 03:25:21;;;;;;;5.47;3.00;;;;;;;19.61;62.53;101168.56;1724237;82;21037;-49
2021/05/15 03:27:47;;;;;;;5.22;2.50;;;;;;;19.81;62.02;101172.78;1790473;79;21036;-50
2021/05/15 03:30:16;;;;;;;4.65;2.80;;;;;;;20.08;61.40;101164.70;1775432;80;21072;-50
2021/05/15 03:32:43;;;;;;;5.67;2.40;;;;;;;20.53;60.62;101174.08;1774319;79;21017;-50
2021/05/15 03:35:11;;;;;;;3.77;2.20;;;;;;;21.17;59.08;101171.27;1770034;79;21040;-49
2021/05/15 03:37:40;;;;;;;4.78;2.83;;;;;;;21.92;57.05;101177.75;1779304;79;21052;-50
2021/05/15 03:40:08;;;;;;;4.20;2.20;;;;;;;22.72;55.00;101174.41;1763488;80;21032;-50
2021/05/15 03:42:36;;;;;;;5.85;2.50;;;;;;;23.45;52.93;101179.21;1769476;79;21531;-50
2021/05/15 03:45:05;;;;;;;4.08;2.40;;;;;;;24.04;50.91;101177.26;1761122;80;21568;-50
2021/05/15 03:47:31;;;;;;;5.20;2.75;;;;;;;24.42;49.47;101176.33;1788943;79;21523;-50
2021/05/15 03:49:58;;;;;;;4.65;2.20;;;;;;;24.67;48.33;101176.20;1747337;80;21081;-49
2021/05/15 03:52:25;;;;;;;3.35;2.00;;;;;;;24.83;47.24;101169.67;1767207;79;21079;-49
2021/05/15 03:54:52;;;;;;;3.37;2.08;;;;;;;24.87;46.42;101167.66;1772153;79;21068;-50
2021/05/15 03:57:19;;;;;;;3.77;2.02;;;;;;;24.74;46.24;101166.38;1767558;79;21023;-50
2021/05/15 03:59:46;;;;;;;4.50;2.37;;;;;;;24.52;46.17;101172.89;1775042;79;21027;-50
2021/05/15 04:02:13;;;;;;;4.03;2.50;;;;;;;24.23;46.59;101174.97;1776188;79;21114;-49
2021/05/15 04:04:40;;;;;;;3.67;2.35;;;;;;;23.91;47.02;101172.39;1789410;79;21040;-48
2021/05/15 04:07:07;;;;;;;4.75;2.45;;;;;;;23.61;47.61;101171.89;1760006;80;21133;-50
2021/05/15 04:09:35;;;;;;;3.52;1.98;;;;;;;23.26;48.25;101172.08;1775500;79;21036;-49
2021/05/15 04:12:03;;;;;;;5.33;2.60;;;;;;;23.03;48.76;101174.09;1780292;79;21041;-50
2021/05/15 04:14:40;;;;;;;6.65;2.15;;;;;;;22.81;49.22;101179.13;1769675;80;21045;-49
2021/05/15 04:17:14;;;;;;;4.33;2.10;;;;;;;22.60;49.70;101179.58;1765078;79;21028;-49
2021/05/15 04:19:31;;;;;;;3.52;2.20;;;;;;;22.43;50.14;101181.09;1745909;80;21049;-50
2021/05/15 04:21:57;;;;;;;3.27;2.27;;;;;;;22.27;50.45;101175.08;1754786;79;21615;-50
2021/05/15 04:24:25;;;;;;;2.77;1.85;;;;;;;22.15;50.82;101185.13;1771058;79;21075;-49
2021/05/15 04:26:54;;;;;;;5.17;1.90;;;;;;;22.03;50.78;101180.57;1765878;79;21607;-49
2021/05/15 04:29:21;;;;;;;3.67;1.80;;;;;;;21.94;50.83;101190.44;1760201;80;21538;-50
2021/05/15 04:31:49;;;;;;;4.05;1.90;;;;;;;21.85;50.81;101193.64;1777487;79;21115;-49
2021/05/15 04:34:16;;;;;;;6.55;2.22;;;;;;;21.79;51.06;101188.22;1778535;79;21076;-49
2021/05/15 04:36:43;;;;;;;4.17;1.90;;;;;;;21.74;51.13;101185.48;1769775;79;21539;-50
2021/05/15 04:39:10;;;;;;;2.55;1.60;;;;;;;21.70;51.17;101190.59;1778601;79;21560;-49
2021/05/15 04:41:37;;;;;;;2.80;1.67;;;;;;;21.65;51.11;101192.19;1769253;79;21060;-50
2021/05/15 04:44:04;;;;;;;2.50;1.65;;;;;;;21.63;51.14;101193.21;1770153;80;21069;-50
2021/05/15 04:46:30;;;;;;;4.15;2.52;;;;;;;21.61;51.33;101193.78;1787269;79;21028;-49
2021/05/15 04:48:58;;;;;;;7.50;3.08;;;;;;;21.57;51.51;101196.23;1772762;80;21048;-50
2021/05/15 04:51:25;;;;;;;4.72;2.83;;;;;;;21.54;51.50;101193.75;1776806;79;21564;-49
2021/05/15 04:53:51;;;;;;;4.58;2.80;;;;;;;21.52;51.61;101193.00;1787548;78;21115;-50
2021/05/15 04:56:18;;;;;;;5.40;2.87;;;;;;;21.49;51.79;101190.08;1764873;80;21032;-49
2021/05/15 04:58:46;;;;;;;7.37;2.72;;;;;;;21.46;51.93;101186.75;1762345;79;21025;-49
2021/05/15 05:01:13;;;;;;;4.15;2.20;;;;;;;21.44;52.13;101185.52;1763894;80;21039;-49
2021/05/15 05:03:40;;;;;;;3.30;1.90;;;;;;;21.33;52.58;101182.65;1774321;80;21103;-50
2021/05/15 05:06:07;;;;;;;2.85;1.77;;;;;;;21.31;52.59;101187.67;1784904;79;21029;-50
2021/05/15 05:08:33;;;;;;;2.50;1.70;;;;;;;21.31;52.53;101189.83;1786960;79;21040;-49
2021/05/15 05:11:00;;;;;;;2.45;1.27;;;;;;;21.46;51.91;101188.06;1782288;80;21111;-50
2021/05/15 05:13:29;;;;;;;3.85;1.42;;;;;;;21.54;51.50;101181.84;1769331;79;21099;-49
2021/05/15 05:15:56;;;;;;;1.40;1.30;;;;;;;21.63;51.23;101191.89;1781162;79;21020;-49
2021/05/15 05:18:24;;;;;;;1.15;1.00;;;;;;;21.77;51.07;101194.08;1750950;79;21095;-50
2021/05/15 05:20:52;;;;;;;1.12;0.85;;;;;;;21.94;50.13;101193.08;1744361;81;21097;-50
2021/05/15 05:23:18;;;;;;;2.90;1.02;;;;;;;22.20;49.38;101194.95;1766997;79;21099;-50
2021/05/15 05:25:45;;;;;;;2.33;0.90;;;;;;;22.59;48.59;101197.75;1774602;79;21149;-50
2021/05/15 05:28:14;;;;;;;2.67;0.93;;;;;;;23.19;47.86;101194.67;1777201;79;20992;-50
2021/05/15 05:30:40;;;;;;;4.62;1.05;;;;;;;23.90;46.20;101194.63;1762371;79;22118;-50
2021/05/15 05:33:07;;;;;;;1.45;0.90;;;;;;;24.71;44.70;101197.67;1771957;80;21017;-50
2021/05/15 05:35:35;;;;;;;1.07;0.98;;;;;;;25.48;42.67;101199.37;1735636;78;21052;-49
2021/05/15 05:38:02;;;;;;;4.00;1.00;;;;;;;26.24;40.78;101204.06;1780381;79;21075;-50
2021/05/15 05:40:29;;;;;;;1.85;0.93;;;;;;;26.96;39.12;101202.13;1777633;79;21040;-50
2021/05/15 05:42:56;;;;;;;1.37;1.15;;;;;;;27.61;38.01;101194.42;1763524;80;21072;-50
2021/05/15 05:45:23;;;;;;;4.42;1.82;;;;;;;28.21;36.78;101202.50;1787335;79;21036;-50
2021/05/15 05:47:50;;;;;;;3.92;1.90;;;;;;;28.74;36.19;101201.74;1768234;80;21072;-48
2021/05/15 05:50:17;;;;;;;3.95;2.30;;;;;;;29.22;35.67;101200.47;1767510;79;21059;-48
2021/05/15 05:52:45;;;;;;;7.53;2.10;;;;;;;29.62;34.66;101203.78;1784879;79;21131;-48
2021/05/15 05:55:12;;;;;;;3.30;2.40;;;;;;;29.95;34.16;101203.78;1784846;79;21060;-49
2021/05/15 05:57:40;;;;;;;5.37;2.15;;;;;;;30.11;33.85;101211.56;1771742;80;21130;-49
2021/05/15 06:00:09;;;;;;;7.50;3.10;;;;;;;30.08;33.74;101213.22;1780585;79;21040;-49
2021/05/15 06:02:36;;;;;;;6.78;2.77;;;;;;;30.03;33.93;101215.97;1766962;79;21599;-50
2021/05/15 06:05:03;;;;;;;5.95;2.42;;;;;;;30.05;33.90;101211.30;1732608;81;21049;-49
2021/05/15 06:07:31;;;;;;;4.83;2.35;;;;;;;30.13;33.84;101210.91;1731050;81;21882;-49
2021/05/15 06:09:57;;;;;;;3.70;2.30;;;;;;;30.22;33.69;101214.06;1726198;82;21061;-49
2021/05/15 06:12:25;;;;;;;6.62;2.37;;;;;;;30.31;33.55;101221.28;1713809;82;21062;-49
2021/05/15 06:14:53;;;;;;;6.92;2.50;;;;;;;30.37;33.11;101222.02;1766377;80;21063;-49
2021/05/15 06:17:20;;;;;;;5.08;2.58;;;;;;;30.28;33.05;101220.19;1753410;79;21527;-49
2021/05/15 06:19:47;;;;;;;4.65;2.65;;;;;;;29.93;33.53;101218.70;1763662;80;21047;-49
2021/05/15 06:22:14;;;;;;;4.62;2.65;;;;;;;29.50;34.20;101221.03;1765881;79;21084;-49
2021/05/15 06:24:41;;;;;;;7.28;2.52;;;;;;;29.11;34.96;101222.00;1766434;80;21035;-49
2021/05/15 06:27:08;;;;;;;4.20;2.55;;;;;;;28.79;35.57;101217.73;1766503;80;21069;-50
2021/05/15 06:29:35;;;;;;;4.55;2.62;;;;;;;28.55;36.01;101218.59;1767983;79;21025;-49
2021/05/15 06:32:03;;;;;;;4.95;2.83;;;;;;;28.33;36.32;101221.48;1775822;79;21603;-49
2021/05/15 06:34:30;;;;;;;5.28;2.80;;;;;;;28.00;37.00;101217.75;1727477;82;21654;-49
2021/05/15 06:36:57;;;;;;;5.70;2.20;;;;;;;27.77;37.41;101224.20;1706442;82;21023;-49
2021/05/15 06:39:24;;;;;;;4.87;2.72;;;;;;;27.52;37.92;101221.92;1726717;82;21576;-48
2021/05/15 06:41:51;;;;;;;5.87;3.00;;;;;;;27.27;38.45;101223.97;1779788;78;21011;-49
2021/05/15 06:44:17;;;;;;;6.62;2.50;;;;;;;27.07;38.96;101224.80;1804877;79;21048;-48
2021/05/15 06:46:45;;;;;;;4.97;2.70;;;;;;;26.93;39.43;101226.91;1714428;81;21090;-49
2021/05/15 06:49:14;;;;;;;5.33;2.95;;;;;;;26.88;39.61;101232.63;1758419;79;21076;-48
2021/05/15 06:51:40;;;;;;;4.60;2.58;;;;;;;26.80;39.93;101239.08;1780509;79;21075;-49
2021/05/15 06:54:07;;;;;;;5.80;2.45;;;;;;;26.68;40.28;101229.84;1727955;81;21620;-49
2021/05/15 06:56:33;;;;;;;7.08;2.62;;;;;;;26.59;40.64;101232.77;1739053;82;21039;-48
2021/05/15 06:59:00;;;;;;;5.85;2.90;;;;;;;26.67;40.82;101239.67;1767750;79;21614;-48
2021/05/15 07:01:27;;;;;;;4.65;2.62;;;;;;;26.87;40.43;101241.62;1774778;79;21067;-48
2021/05/15 07:03:54;;;;;;;5.22;3.15;;;;;;;27.04;40.09;101246.41;1774790;79;21029;-49
2021/05/15 07:06:21;;;;;;;4.80;2.62;;;;;;;27.15;39.92;101246.38;1732082;82;21032;-48
2021/05/15 07:08:50;;;;;;;4.35;2.72;;;;;;;27.23;39.97;101249.25;1768287;79;21087;-49
2021/05/15 07:11:17;;;;;;;4.62;2.50;;;;;;;27.37;39.73;101250.79;1769131;79;21079;-49
2021/05/15 07:13:46;;;;;;;5.03;2.40;;;;;;;27.46;39.49;101246.50;1780620;79;21051;-49
2021/05/15 07:16:13;;;;;;;5.05;3.02;;;;;;;27.47;39.53;101254.90;1732821;82;21143;-48
2021/05/15 07:18:41;;;;;;;5.85;2.72;;;;;;;27.59;39.29;101252.52;1775763;79;21009;-49
2021/05/15 07:21:08;;;;;;;4.55;2.62;;;;;;;27.67;39.11;101255.39;1778387;79;21669;-49
2021/05/15 07:23:34;;;;;;;2.42;1.98;;;;;;;27.77;38.91;101261.64;1785028;79;21356;-49
2021/05/15 07:26:01;;;;;;;7.33;3.08;;;;;;;27.81;38.69;101261.73;1776282;79;21004;-49
2021/05/15 07:28:30;;;;;;;5.10;3.15;;;;;;;27.73;38.59;101257.53;1723681;82;21039;-49
2021/05/15 07:30:57;;;;;;;4.33;2.60;;;;;;;27.55;39.05;101262.64;1768967;79;21052;-49
2021/05/15 07:33:25;;;;;;;4.00;2.87;;;;;;;27.39;39.76;101266.21;1768840;79;21060;-49
2021/05/15 07:35:52;;;;;;;4.78;3.12;;;;;;;27.35;39.76;101266.97;1773529;79;21013;-49
2021/05/15 07:38:21;;;;;;;4.12;2.80;;;;;;;27.25;39.83;101266.00;1762248;80;21003;-49
2021/05/15 07:40:47;;;;;;;8.35;3.98;;;;;;;27.01;40.25;101266.70;1750036;80;21088;-49
2021/05/15 07:43:14;;;;;;;5.62;3.10;;;;;;;26.71;40.89;101269.15;1777417;79;21104;-50
2021/05/15 07:45:40;;;;;;;3.87;2.95;;;;;;;26.44;41.43;101274.05;1768829;79;21090;-49
2021/05/15 07:48:08;;;;;;;7.30;3.70;;;;;;;26.23;41.85;101271.74;1762792;80;21020;-50
2021/05/15 07:50:35;;;;;;;3.92;2.70;;;;;;;25.67;42.92;101274.29;1768223;79;21023;-48
2021/05/15 07:53:02;;;;;;;3.37;2.70;;;;;;;25.67;42.92;101274.29;1766744;79;21099;-49
2021/05/15 07:55:28;;;;;;;5.20;3.08;;;;;;;25.39;43.63;101281.28;1778673;79;21512;-49
2021/05/15 07:57:55;;;;;;;5.17;3.40;;;;;;;25.13;44.25;101281.53;1777973;79;21021;-49
2021/05/15 08:00:22;;;;;;;5.33;3.27;;;;;;;24.93;44.79;101281.20;1764307;78;20997;-49
2021/05/15 08:02:49;;;;;;;4.50;3.33;;;;;;;24.82;45.18;101279.79;1771079;79;21563;-49
2021/05/15 08:05:16;;;;;;;3.45;3.15;;;;;;;24.68;45.52;101285.70;1783499;79;21567;-49
2021/05/15 08:07:42;;;;;;;4.58;3.72;;;;;;;24.56;45.92;101285.25;1779239;79;21576;-49
2021/05/15 08:10:11;;;;;;;5.62;3.40;;;;;;;24.42;46.42;101287.55;1769767;80;21025;-49
2021/05/15 08:12:38;;;;;;;3.92;3.12;;;;;;;24.38;46.66;101286.56;1782802;79;21000;-49
2021/05/15 08:15:07;;;;;;;5.95;3.30;;;;;;;24.36;46.76;101289.81;1786998;79;21036;-49
2021/05/15 08:17:36;;;;;;;7.30;3.55;;;;;;;24.31;46.96;101294.59;1768967;79;21019;-49
2021/05/15 08:20:04;;;;;;;5.00;3.50;;;;;;;24.23;47.36;101289.31;1765225;80;21059;-48
2021/05/15 08:22:32;;;;;;;5.17;3.60;;;;;;;24.20;47.38;101292.20;1775831;79;21079;-49
2021/05/15 08:24:59;;;;;;;6.15;3.50;;;;;;;24.18;47.48;101291.47;1777301;79;21123;-51
2021/05/15 08:27:26;;;;;;;7.20;4.22;;;;;;;24.17;47.65;101295.06;1784278;79;21111;-50
2021/05/15 08:29:53;;;;;;;4.75;3.30;;;;;;;24.16;47.69;101296.04;1781179;79;21119;-50
2021/05/15 08:32:20;;;;;;;5.92;3.52;;;;;;;24.10;47.91;101301.78;1765056;79;21093;-50
2021/05/15 08:34:48;;;;;;;4.62;3.42;;;;;;;24.05;48.12;101300.41;1770513;79;21056;-50
2021/05/15 08:37:15;;;;;;;5.20;3.10;;;;;;;24.01;48.32;101303.70;1765084;79;21049;-50
2021/05/15 08:39:42;;;;;;;3.58;2.80;;;;;;;24.02;48.34;101304.09;1710382;82;21071;-51
2021/05/15 08:42:09;;;;;;;3.90;2.83;;;;;;;24.06;48.40;101305.61;1725658;80;21073;-50
2021/05/15 08:44:38;;;;;;;4.87;3.72;;;;;;;24.12;48.20;101299.88;1731310;80;21077;-50
2021/05/15 08:47:05;;;;;;;4.30;3.20;;;;;;;24.16;48.25;101304.02;1695422;83;21064;-50
2021/05/15 08:49:32;;;;;;;4.65;3.30;;;;;;;24.18;48.26;101307.42;1706175;82;21131;-51
2021/05/15 08:51:59;;;;;;;4.45;2.95;;;;;;;24.20;48.26;101300.19;1711556;82;21037;-50
2021/05/15 08:54:25;;;;;;;8.23;3.40;;;;;;;24.27;48.29;101297.09;1704609;82;21601;-50
2021/05/15 08:56:52;;;;;;;3.95;3.17;;;;;;;24.36;48.19;101299.95;1703523;82;21025;-50
2021/05/15 08:59:19;;;;;;;7.15;3.40;;;;;;;24.41;47.87;101299.63;1700832;83;21063;-50
2021/05/15 09:01:46;;;;;;;3.40;3.00;;;;;;;24.42;47.79;101294.70;1716576;82;21092;-52
2021/05/15 09:04:13;;;;;;;4.03;2.95;;;;;;;24.42;47.82;101293.38;1703431;82;21626;-50
2021/05/15 09:06:41;;;;;;;3.22;2.67;;;;;;;24.38;47.88;101288.72;1690171;83;21042;-50
2021/05/15 09:09:08;;;;;;;6.22;3.20;;;;;;;24.40;47.92;101291.30;1787533;79;21032;-49
2021/05/15 09:11:37;;;;;;;4.50;2.70;;;;;;;24.41;47.90;101288.99;1761040;79;21052;-50
2021/05/15 09:14:04;;;;;;;5.37;3.25;;;;;;;24.41;47.87;101281.02;1774926;79;21068;-50
2021/05/15 09:16:31;;;;;;;3.95;2.80;;;;;;;24.42;48.04;101280.06;1782731;79;21591;-49
2021/05/15 09:19:07;;;;;;;4.08;2.95;;;;;;;24.41;48.05;101279.68;1783490;79;21024;-49
2021/05/15 09:21:34;;;;;;;6.05;2.95;;;;;;;24.42;48.06;101276.08;1782204;79;21060;-49
2021/05/15 09:24:05;;;;;;;4.47;3.27;;;;;;;24.46;47.92;101282.88;1761903;79;21076;-50
2021/05/15 09:26:30;;;;;;;4.42;2.65;;;;;;;24.46;47.79;101281.05;1750101;79;21055;-50
2021/05/15 09:28:58;;;;;;;5.03;3.37;;;;;;;24.44;47.92;101283.47;1734270;81;21059;-50
2021/05/15 09:31:31;;;;;;;4.83;2.80;;;;;;;24.41;47.87;101288.99;1775905;79;21079;-49
2021/05/15 09:34:05;;;;;;;5.70;2.95;;;;;;;24.38;48.07;101289.23;1777394;79;21033;-50
2021/05/15 09:36:39;;;;;;;3.08;2.52;;;;;;;24.36;48.07;101281.83;1778044;79;21059;-48
2021/05/15 09:39:14;;;;;;;4.05;3.10;;;;;;;24.38;48.09;101288.72;1775790;79;21088;-50
2021/05/15 09:41:48;;;;;;;4.00;3.25;;;;;;;24.42;48.01;101285.39;1671641;83;21574;-50
2021/05/15 09:44:18;;;;;;;4.03;3.15;;;;;;;24.45;47.89;101283.83;1577749;89;21128;-49
2021/05/15 09:46:46;;;;;;;4.20;2.70;;;;;;;24.45;47.85;101287.34;1588138;89;21096;-50
2021/05/15 09:49:14;;;;;;;4.72;3.00;;;;;;;24.48;47.88;101286.28;1575756;90;21154;-50
2021/05/15 09:51:50;;;;;;;3.37;2.47;;;;;;;24.51;47.68;101288.70;1576636;89;21194;-50
2021/05/15 09:54:26;;;;;;;4.85;2.85;;;;;;;24.54;47.54;101285.38;1578699;89;21104;-50
2021/05/15 09:57:08;;;;;;;4.47;2.65;;;;;;;24.53;47.51;101288.12;1576834;89;21096;-50
2021/05/15 09:59:39;;;;;;;3.60;2.42;;;;;;;24.51;47.51;101285.58;1580294;89;21715;-50
2021/05/15 10:02:12;;;;;;;3.25;2.52;;;;;;;24.43;47.80;101283.08;1579101;89;21063;-50
2021/05/15 10:04:43;;;;;;;3.60;2.72;;;;;;;24.41;48.19;101275.69;1543304;92;21155;-50
2021/05/15 10:07:18;;;;;;;4.72;2.85;;;;;;;24.45;48.33;101281.16;1541855;91;21108;-49
2021/05/15 10:09:45;;;;;;;5.85;2.47;;;;;;;24.54;47.90;101279.19;1545119;92;21192;-49
2021/05/15 10:12:13;;;;;;;3.92;2.50;;;;;;;24.59;47.73;101277.03;1523485;92;21163;-49
2021/05/15 10:14:40;;;;;;;5.20;3.33;;;;;;;24.60;47.83;101272.95;1537685;92;21162;-50
2021/05/15 10:17:07;;;;;;;3.30;2.40;;;;;;;24.61;47.97;101275.11;1538760;92;21056;-50
2021/05/15 10:19:34;;;;;;;5.85;3.12;;;;;;;24.64;47.88;101273.58;1544105;91;21154;-50
2021/05/15 10:22:03;;;;;;;3.05;2.58;;;;;;;24.68;47.80;101273.73;1543675;91;21171;-50
2021/05/15 10:24:34;;;;;;;7.33;3.33;;;;;;;24.70;47.76;101277.13;1550103;91;21148;-49
2021/05/15 10:27:12;;;;;;;7.35;2.95;;;;;;;24.71;47.67;101274.85;1539540;92;21627;-49
2021/05/15 10:29:44;;;;;;;4.40;2.45;;;;;;;24.68;47.78;101271.06;1530957;91;21136;-49
2021/05/15 10:32:23;;;;;;;7.28;3.10;;;;;;;24.66;47.84;101276.51;1539608;92;21642;-49
2021/05/15 10:35:10;;;;;;;4.17;3.00;;;;;;;24.66;47.91;101275.65;1543304;91;21638;-50
2021/05/15 10:37:43;;;;;;;7.53;2.92;;;;;;;24.70;47.97;101274.47;1536257;91;21100;-49
2021/05/15 10:40:16;;;;;;;6.42;2.98;;;;;;;24.74;47.99;101273.31;1499023;92;21140;-49
2021/05/15 10:42:45;;;;;;;5.35;3.05;;;;;;;24.76;47.91;101276.72;1532793;92;21487;-49
2021/05/15 10:45:13;;;;;;;4.97;2.90;;;;;;;24.71;48.22;101269.53;1573739;88;21159;-49
2021/05/15 10:47:43;;;;;;;3.90;3.40;;;;;;;24.68;48.48;101271.06;1591408;89;21635;-49
2021/05/15 10:50:18;;;;;;;5.20;2.90;;;;;;;24.68;48.63;101279.05;1578061;89;21279;-49
2021/05/15 10:52:46;;;;;;;3.40;2.77;;;;;;;24.69;48.66;101268.79;1574294;89;21192;-51
2021/05/15 10:55:13;;;;;;;7.20;3.33;;;;;;;24.74;48.61;101273.31;1580505;88;21172;-50
2021/05/15 10:57:40;;;;;;;9.65;3.95;;;;;;;24.75;48.50;101275.03;1619379;87;21112;-49
2021/05/15 11:00:09;;;;;;;8.10;3.70;;;;;;;24.71;48.52;101268.20;1566716;88;21150;-50
2021/05/15 11:02:38;;;;;;;7.95;3.58;;;;;;;24.63;48.71;101267.39;1678890;83;21144;-50
2021/05/15 11:05:17;;;;;;;4.90;3.75;;;;;;;24.54;49.05;101269.88;1686420;83;21041;-49
2021/05/15 11:07:44;;;;;;;4.75;3.22;;;;;;;24.45;49.38;101269.20;1680055;83;21552;-49
2021/05/15 11:10:17;;;;;;;5.22;3.27;;;;;;;24.45;49.53;101263.87;1627403;86;21156;-49
2021/05/15 11:12:51;;;;;;;4.55;3.35;;;;;;;24.48;49.63;101258.34;1677978;83;21013;-48
2021/05/15 11:15:24;;;;;;;5.33;3.33;;;;;;;24.55;49.69;101262.25;1627912;86;21718;-49
2021/05/15 11:18:05;;;;;;;4.45;3.05;;;;;;;24.65;49.52;101260.63;1635466;86;21064;-49
2021/05/15 11:20:48;;;;;;;4.45;2.95;;;;;;;24.70;49.41;101258.50;1616387;86;21071;-49
2021/05/15 11:23:19;;;;;;;3.87;3.10;;;;;;;24.76;49.31;101259.41;1629585;86;21155;-50
2021/05/15 11:26:03;;;;;;;5.53;2.90;;;;;;;24.80;49.29;101252.43;1642912;86;21096;-49
2021/05/15 11:28:30;;;;;;;3.70;2.90;;;;;;;24.86;49.18;101259.11;1627367;86;21099;-50